sensor_id;sensor_type;location;lat;lon;timestamp;pressure;altitude;pressure_sealevel;temperature;humidity
78117;BME280;67887;59.082;37.928;2023-03-23T00:01:05;98926.63;;;8.15;48.54
78117;BME280;67887;59.082;37.928;2023-03-23T00:03:32;98920.84;;;8.26;48.40
78117;BME280;67887;59.082;37.928;2023-03-23T00:05:59;98924.53;;;8.22;48.32
78117;BME280;67887;59.082;37.928;2023-03-23T00:08:34;98920.44;;;8.18;48.49
78117;BME280;67887;59.082;37.928;2023-03-23T00:11:06;98913.53;;;8.17;48.42
78117;BME280;67887;59.082;37.928;2023-03-23T00:13:33;98917.72;;;8.19;48.24
78117;BME280;67887;59.082;37.928;2023-03-23T00:15:59;98911.63;;;8.20;48.81
78117;BME280;67887;59.082;37.928;2023-03-23T00:18:25;98923.69;;;8.21;48.73
78117;BME280;67887;59.082;37.928;2023-03-23T00:20:53;98916.72;;;8.22;48.82
78117;BME280;67887;59.082;37.928;2023-03-23T00:23:23;98917.66;;;8.21;48.94
78117;BME280;67887;59.082;37.928;2023-03-23T00:25:52;98923.81;;;8.20;48.67
78117;BME280;67887;59.082;37.928;2023-03-23T00:28:20;98911.88;;;8.16;49.15
78117;BME280;67887;59.082;37.928;2023-03-23T00:31:02;98909.34;;;8.14;48.92
78117;BME280;67887;59.082;37.928;2023-03-23T00:33:31;98913.78;;;8.12;49.21
78117;BME280;67887;59.082;37.928;2023-03-23T00:36:05;98904.28;;;8.11;49.25
78117;BME280;67887;59.082;37.928;2023-03-23T00:38:31;98903.28;;;8.13;49.42
78117;BME280;67887;59.082;37.928;2023-03-23T00:40:57;98901.69;;;8.11;49.27
78117;BME280;67887;59.082;37.928;2023-03-23T00:43:28;98903.22;;;8.15;49.15
78117;BME280;67887;59.082;37.928;2023-03-23T00:45:58;98902.34;;;8.14;49.36
78117;BME280;67887;59.082;37.928;2023-03-23T00:48:28;98909.34;;;8.14;49.39
78117;BME280;67887;59.082;37.928;2023-03-23T00:50:55;98910.25;;;8.13;49.79
78117;BME280;67887;59.082;37.928;2023-03-23T00:53:21;98904.19;;;8.12;49.82
78117;BME280;67887;59.082;37.928;2023-03-23T00:55:48;98913.78;;;8.12;49.56
78117;BME280;67887;59.082;37.928;2023-03-23T00:58:16;98892.19;;;8.10;49.66
78117;BME280;67887;59.082;37.928;2023-03-23T01:00:43;98893.88;;;8.11;49.83
78117;BME280;67887;59.082;37.928;2023-03-23T01:03:09;98890.41;;;8.10;49.53
78117;BME280;67887;59.082;37.928;2023-03-23T01:05:39;98890.53;;;8.09;50.00
78117;BME280;67887;59.082;37.928;2023-03-23T01:08:06;98887.75;;;8.12;50.16
78117;BME280;67887;59.082;37.928;2023-03-23T01:10:32;98881.66;;;8.13;50.14
78117;BME280;67887;59.082;37.928;2023-03-23T01:13:00;98890.28;;;8.13;49.99
78117;BME280;67887;59.082;37.928;2023-03-23T01:15:27;98893.72;;;8.14;50.03
78117;BME280;67887;59.082;37.928;2023-03-23T01:17:54;98888.44;;;8.16;50.26
78117;BME280;67887;59.082;37.928;2023-03-23T01:20:21;98877.88;;;8.19;50.39
78117;BME280;67887;59.082;37.928;2023-03-23T01:22:47;98876.03;;;8.21;50.63
78117;BME280;67887;59.082;37.928;2023-03-23T01:25:13;98876.03;;;8.21;50.63
78117;BME280;67887;59.082;37.928;2023-03-23T01:27:40;98872.41;;;8.23;50.67
78117;BME280;67887;59.082;37.928;2023-03-23T01:30:08;98862.72;;;8.27;50.51
78117;BME280;67887;59.082;37.928;2023-03-23T01:32:36;98858.25;;;8.29;50.52
78117;BME280;67887;59.082;37.928;2023-03-23T01:35:02;98847.09;;;8.27;50.42
78117;BME280;67887;59.082;37.928;2023-03-23T01:37:30;98855.81;;;8.26;50.87
78117;BME280;67887;59.082;37.928;2023-03-23T01:39:57;98856.75;;;8.25;50.87
78117;BME280;67887;59.082;37.928;2023-03-23T01:42:24;98849.94;;;8.22;50.91
78117;BME280;67887;59.082;37.928;2023-03-23T01:47:20;98840.28;;;8.24;51.04
78117;BME280;67887;59.082;37.928;2023-03-23T01:49:50;98834.41;;;8.21;51.21
78117;BME280;67887;59.082;37.928;2023-03-23T01:52:22;98840.44;;;8.21;51.34
78117;BME280;67887;59.082;37.928;2023-03-23T01:54:53;98842.13;;;8.22;51.24
78117;BME280;67887;59.082;37.928;2023-03-23T01:57:23;98842.97;;;8.23;51.41
78117;BME280;67887;59.082;37.928;2023-03-23T01:59:55;98835.09;;;8.24;51.61
78117;BME280;67887;59.082;37.928;2023-03-23T02:02:41;98831.56;;;8.25;51.49
78117;BME280;67887;59.082;37.928;2023-03-23T02:05:11;98828.25;;;8.22;51.57
78117;BME280;67887;59.082;37.928;2023-03-23T02:07:41;98816.19;;;8.21;51.55
78117;BME280;67887;59.082;37.928;2023-03-23T02:10:08;98824.81;;;8.21;51.47
78117;BME280;67887;59.082;37.928;2023-03-23T02:12:35;98824.94;;;8.20;51.75
78117;BME280;67887;59.082;37.928;2023-03-23T02:15:02;98832.03;;;8.16;51.61
78117;BME280;67887;59.082;37.928;2023-03-23T02:25:53;98817.94;;;8.20;52.21
78117;BME280;67887;59.082;37.928;2023-03-23T02:37:14;98819.47;;;8.24;52.05
78117;BME280;67887;59.082;37.928;2023-03-23T02:39:52;98807.53;;;8.20;51.89
78117;BME280;67887;59.082;37.928;2023-03-23T02:42:25;98814.41;;;8.21;52.03
78117;BME280;67887;59.082;37.928;2023-03-23T02:44:53;98809.22;;;8.21;51.79
78117;BME280;67887;59.082;37.928;2023-03-23T02:47:24;98808.38;;;8.21;52.29
78117;BME280;67887;59.082;37.928;2023-03-23T02:49:54;98804.09;;;8.20;52.43
78117;BME280;67887;59.082;37.928;2023-03-23T02:52:24;98812.06;;;8.17;52.02
78117;BME280;67887;59.082;37.928;2023-03-23T02:54:55;98815.59;;;8.16;52.34
78117;BME280;67887;59.082;37.928;2023-03-23T02:57:23;98812.22;;;8.13;52.22
78117;BME280;67887;59.082;37.928;2023-03-23T02:59:53;98809.63;;;8.13;52.55
78117;BME280;67887;59.082;37.928;2023-03-23T03:02:31;98804.34;;;8.15;52.48
78117;BME280;67887;59.082;37.928;2023-03-23T03:12:59;98813.00;;;8.16;52.64
78117;BME280;67887;59.082;37.928;2023-03-23T03:15:36;98810.47;;;8.14;52.20
78117;BME280;67887;59.082;37.928;2023-03-23T03:18:10;98809.56;;;8.15;52.60
78117;BME280;67887;59.082;37.928;2023-03-23T03:20:46;98806.84;;;8.17;52.73
78117;BME280;67887;59.082;37.928;2023-03-23T03:23:16;98810.22;;;8.19;52.45
78117;BME280;67887;59.082;37.928;2023-03-23T03:25:45;98802.47;;;8.17;52.12
78117;BME280;67887;59.082;37.928;2023-03-23T03:28:18;98807.69;;;8.17;52.36
78117;BME280;67887;59.082;37.928;2023-03-23T03:30:54;98790.34;;;8.18;52.32
78117;BME280;67887;59.082;37.928;2023-03-23T03:33:23;98798.16;;;8.18;52.75
78117;BME280;67887;59.082;37.928;2023-03-23T03:35:56;98798.97;;;8.18;52.36
78117;BME280;67887;59.082;37.928;2023-03-23T03:38:22;98796.38;;;8.18;52.40
78117;BME280;67887;59.082;37.928;2023-03-23T03:40:51;98788.75;;;8.31;52.26
78117;BME280;67887;59.082;37.928;2023-03-23T03:43:17;98794.09;;;8.28;52.52
78117;BME280;67887;59.082;37.928;2023-03-23T03:45:43;98788.31;;;8.23;52.26
78117;BME280;67887;59.082;37.928;2023-03-23T03:48:11;98791.94;;;8.20;52.52
78117;BME280;67887;59.082;37.928;2023-03-23T03:50:37;98786.03;;;8.17;52.32
78117;BME280;67887;59.082;37.928;2023-03-23T03:53:04;98785.22;;;8.16;52.70
78117;BME280;67887;59.082;37.928;2023-03-23T03:55:32;98783.53;;;8.15;52.31
78117;BME280;67887;59.082;37.928;2023-03-23T03:58:08;98773.78;;;8.19;52.72
78117;BME280;67887;59.082;37.928;2023-03-23T04:01:12;98775.56;;;8.18;52.58
78117;BME280;67887;59.082;37.928;2023-03-23T04:03:40;98773.03;;;8.17;52.82
78117;BME280;67887;59.082;37.928;2023-03-23T04:06:26;98767.75;;;8.18;52.79
78117;BME280;67887;59.082;37.928;2023-03-23T04:08:55;98772.13;;;8.18;52.59
78117;BME280;67887;59.082;37.928;2023-03-23T04:11:21;98763.47;;;8.17;52.22
78117;BME280;67887;59.082;37.928;2023-03-23T04:13:47;98754.81;;;8.17;52.89
78117;BME280;67887;59.082;37.928;2023-03-23T04:16:21;98753.06;;;8.17;52.33
78117;BME280;67887;59.082;37.928;2023-03-23T04:18:48;98756.59;;;8.16;52.70
78117;BME280;67887;59.082;37.928;2023-03-23T04:21:16;98760.84;;;8.17;52.91
78117;BME280;67887;59.082;37.928;2023-03-23T04:23:44;98742.81;;;8.30;52.64
78117;BME280;67887;59.082;37.928;2023-03-23T04:26:11;98746.50;;;8.26;52.63
78117;BME280;67887;59.082;37.928;2023-03-23T04:28:43;98751.97;;;8.21;52.85
78117;BME280;67887;59.082;37.928;2023-03-23T04:31:41;98764.06;;;8.22;52.89
78117;BME280;67887;59.082;37.928;2023-03-23T04:34:25;98757.28;;;8.20;52.68
78117;BME280;67887;59.082;37.928;2023-03-23T04:36:52;98753.81;;;8.19;52.59
78117;BME280;67887;59.082;37.928;2023-03-23T04:39:24;98741.75;;;8.18;52.79
78117;BME280;67887;59.082;37.928;2023-03-23T04:41:54;98749.53;;;8.18;52.72
78117;BME280;67887;59.082;37.928;2023-03-23T04:44:35;98748.72;;;8.18;52.94
78117;BME280;67887;59.082;37.928;2023-03-23T04:47:05;98737.38;;;8.19;52.76
78117;BME280;67887;59.082;37.928;2023-03-23T04:49:37;98740.91;;;8.18;52.32
78117;BME280;67887;59.082;37.928;2023-03-23T04:52:16;98739.97;;;8.19;52.56
78117;BME280;67887;59.082;37.928;2023-03-23T04:54:46;98732.16;;;8.19;52.46
78117;BME280;67887;59.082;37.928;2023-03-23T04:57:14;98729.56;;;8.19;52.50
78117;BME280;67887;59.082;37.928;2023-03-23T04:59:45;98722.69;;;8.18;52.62
78117;BME280;67887;59.082;37.928;2023-03-23T05:02:19;98720.16;;;8.16;52.96
78117;BME280;67887;59.082;37.928;2023-03-23T05:04:46;98714.03;;;8.17;53.19
78117;BME280;67887;59.082;37.928;2023-03-23T05:07:19;98722.59;;;8.19;52.96
78117;BME280;67887;59.082;37.928;2023-03-23T05:09:48;98722.69;;;8.18;52.93
78117;BME280;67887;59.082;37.928;2023-03-23T05:12:17;98718.31;;;8.18;52.66
78117;BME280;67887;59.082;37.928;2023-03-23T05:15:05;98720.84;;;8.20;52.84
78117;BME280;67887;59.082;37.928;2023-03-23T05:17:34;98716.38;;;8.22;52.62
78117;BME280;67887;59.082;37.928;2023-03-23T05:20:05;98709.31;;;8.24;52.67
78117;BME280;67887;59.082;37.928;2023-03-23T05:22:42;98709.19;;;8.27;52.60
78117;BME280;67887;59.082;37.928;2023-03-23T05:25:11;98701.38;;;8.27;52.83
78117;BME280;67887;59.082;37.928;2023-03-23T05:27:42;98699.41;;;8.30;52.75
78117;BME280;67887;59.082;37.928;2023-03-23T05:30:23;98688.75;;;8.35;52.98
78117;BME280;67887;59.082;37.928;2023-03-23T05:32:49;98688.50;;;8.40;52.56
78117;BME280;67887;59.082;37.928;2023-03-23T05:35:39;98678.53;;;8.48;52.51
78117;BME280;67887;59.082;37.928;2023-03-23T05:38:05;98684.22;;;8.54;52.87
78117;BME280;67887;59.082;37.928;2023-03-23T05:40:31;98688.06;;;8.63;52.54
78117;BME280;67887;59.082;37.928;2023-03-23T05:43:03;98672.19;;;8.68;52.58
78117;BME280;67887;59.082;37.928;2023-03-23T05:45:40;98678.63;;;8.77;52.65
78117;BME280;67887;59.082;37.928;2023-03-23T05:48:07;98671.56;;;8.79;52.34
78117;BME280;67887;59.082;37.928;2023-03-23T05:50:35;98675.69;;;8.83;52.36
78117;BME280;67887;59.082;37.928;2023-03-23T05:53:03;98672.91;;;8.86;52.72
78117;BME280;67887;59.082;37.928;2023-03-23T05:55:32;98675.03;;;8.93;52.63
78117;BME280;67887;59.082;37.928;2023-03-23T05:58:09;98671.16;;;9.01;52.28
78117;BME280;67887;59.082;37.928;2023-03-23T06:00:38;98648.91;;;9.09;51.93
78117;BME280;67887;59.082;37.928;2023-03-23T06:03:18;98651.16;;;9.15;51.99
78117;BME280;67887;59.082;37.928;2023-03-23T06:05:52;98636.94;;;9.21;51.83
78117;BME280;67887;59.082;37.928;2023-03-23T06:08:20;98635.81;;;9.25;52.16
78117;BME280;67887;59.082;37.928;2023-03-23T06:10:47;98622.63;;;9.28;51.78
78117;BME280;67887;59.082;37.928;2023-03-23T06:13:14;98614.59;;;9.31;51.98
78117;BME280;67887;59.082;37.928;2023-03-23T06:15:48;98616.09;;;9.35;52.02
78117;BME280;67887;59.082;37.928;2023-03-23T06:18:19;98619.44;;;9.37;51.48
78117;BME280;67887;59.082;37.928;2023-03-23T06:21:08;98622.78;;;9.40;51.52
78117;BME280;67887;59.082;37.928;2023-03-23T06:24:07;98614.84;;;9.41;51.68
78117;BME280;67887;59.082;37.928;2023-03-23T06:26:36;98619.06;;;9.44;51.50
78117;BME280;67887;59.082;37.928;2023-03-23T06:29:07;98623.06;;;9.49;51.59
78117;BME280;67887;59.082;37.928;2023-03-23T06:31:42;98618.50;;;9.53;51.53
78117;BME280;67887;59.082;37.928;2023-03-23T06:34:09;98613.75;;;9.59;51.28
78117;BME280;67887;59.082;37.928;2023-03-23T06:36:56;98621.09;;;9.67;51.35
78117;BME280;67887;59.082;37.928;2023-03-23T06:39:44;98604.84;;;9.76;51.17
78117;BME280;67887;59.082;37.928;2023-03-23T06:42:31;98617.44;;;9.84;50.94
78117;BME280;67887;59.082;37.928;2023-03-23T06:45:16;98605.00;;;9.88;50.82
78117;BME280;67887;59.082;37.928;2023-03-23T06:47:44;98601.38;;;9.90;50.80
78117;BME280;67887;59.082;37.928;2023-03-23T06:50:11;98612.84;;;9.88;50.81
78117;BME280;67887;59.082;37.928;2023-03-23T06:52:39;98601.50;;;9.89;50.83
78117;BME280;67887;59.082;37.928;2023-03-23T06:55:05;98600.53;;;9.90;50.73
78117;BME280;67887;59.082;37.928;2023-03-23T06:57:33;98603.97;;;9.90;50.82
78117;BME280;67887;59.082;37.928;2023-03-23T07:00:00;98604.63;;;9.94;50.88
78117;BME280;67887;59.082;37.928;2023-03-23T07:02:26;98607.78;;;9.99;50.87
78117;BME280;67887;59.082;37.928;2023-03-23T07:04:52;98606.75;;;10.01;50.72
78117;BME280;67887;59.082;37.928;2023-03-23T07:07:24;98600.41;;;10.06;50.58
78117;BME280;67887;59.082;37.928;2023-03-23T07:10:03;98615.66;;;10.12;50.66
78117;BME280;67887;59.082;37.928;2023-03-23T07:12:30;98601.50;;;10.16;50.72
78117;BME280;67887;59.082;37.928;2023-03-23T07:14:57;98601.28;;;10.19;50.34
78117;BME280;67887;59.082;37.928;2023-03-23T07:17:23;98601.94;;;10.23;50.31
78117;BME280;67887;59.082;37.928;2023-03-23T07:20:12;98602.66;;;10.25;50.42
78117;BME280;67887;59.082;37.928;2023-03-23T07:22:38;98587.84;;;10.25;50.56
78117;BME280;67887;59.082;37.928;2023-03-23T07:25:16;98596.50;;;10.26;50.42
78117;BME280;67887;59.082;37.928;2023-03-23T07:27:50;98595.47;;;10.28;50.31
78117;BME280;67887;59.082;37.928;2023-03-23T07:30:17;98586.63;;;10.31;50.45
78117;BME280;67887;59.082;37.928;2023-03-23T07:32:43;98577.56;;;10.36;50.33
78117;BME280;67887;59.082;37.928;2023-03-23T07:35:09;98581.53;;;10.42;50.37
78117;BME280;67887;59.082;37.928;2023-03-23T07:37:54;98569.53;;;10.52;50.27
78117;BME280;67887;59.082;37.928;2023-03-23T07:40:21;98574.97;;;10.62;50.17
78117;BME280;67887;59.082;37.928;2023-03-23T07:42:56;98582.09;;;10.73;50.10
78117;BME280;67887;59.082;37.928;2023-03-23T07:45:48;98564.03;;;10.82;49.88
78117;BME280;67887;59.082;37.928;2023-03-23T07:48:16;98565.19;;;10.91;49.68
78117;BME280;67887;59.082;37.928;2023-03-23T07:50:42;98567.38;;;10.97;49.75
78117;BME280;67887;59.082;37.928;2023-03-23T07:53:11;98566.75;;;11.07;49.60
78117;BME280;67887;59.082;37.928;2023-03-23T07:55:37;98556.72;;;11.00;49.34
78117;BME280;67887;59.082;37.928;2023-03-23T07:58:17;98569.03;;;10.98;49.62
78117;BME280;67887;59.082;37.928;2023-03-23T08:00:47;98574.25;;;10.98;49.61
78117;BME280;67887;59.082;37.928;2023-03-23T08:03:16;98565.59;;;10.98;49.88
78117;BME280;67887;59.082;37.928;2023-03-23T08:06:08;98575.81;;;11.01;50.01
78117;BME280;67887;59.082;37.928;2023-03-23T08:09:10;98567.16;;;11.00;49.89
78117;BME280;67887;59.082;37.928;2023-03-23T08:11:56;98568.44;;;10.95;49.83
78117;BME280;67887;59.082;37.928;2023-03-23T08:14:41;98570.50;;;10.90;50.03
78117;BME280;67887;59.082;37.928;2023-03-23T08:17:39;98572.59;;;10.84;50.01
78117;BME280;67887;59.082;37.928;2023-03-23T08:20:06;98544.06;;;10.81;50.17
78117;BME280;67887;59.082;37.928;2023-03-23T08:22:56;98561.13;;;10.74;50.23
78117;BME280;67887;59.082;37.928;2023-03-23T08:25:50;98551.72;;;10.72;50.30
78117;BME280;67887;59.082;37.928;2023-03-23T08:28:26;98546.78;;;10.67;50.64
78117;BME280;67887;59.082;37.928;2023-03-23T08:30:58;98554.91;;;10.62;50.60
78117;BME280;67887;59.082;37.928;2023-03-23T08:33:47;98543.03;;;10.58;50.84
78117;BME280;67887;59.082;37.928;2023-03-23T08:36:34;98548.44;;;10.55;51.05
78117;BME280;67887;59.082;37.928;2023-03-23T08:39:06;98547.91;;;10.50;51.14
78117;BME280;67887;59.082;37.928;2023-03-23T08:41:52;98554.09;;;10.49;51.26
78117;BME280;67887;59.082;37.928;2023-03-23T08:44:36;98550.44;;;10.52;51.23
78117;BME280;67887;59.082;37.928;2023-03-23T08:47:15;98540.00;;;10.52;51.29
78117;BME280;67887;59.082;37.928;2023-03-23T08:50:15;98546.03;;;10.52;51.23
78117;BME280;67887;59.082;37.928;2023-03-23T08:53:07;98551.19;;;10.54;51.26
78117;BME280;67887;59.082;37.928;2023-03-23T08:56:10;98541.56;;;10.54;51.29
78117;BME280;67887;59.082;37.928;2023-03-23T08:58:56;98540.41;;;10.58;51.23
78117;BME280;67887;59.082;37.928;2023-03-23T09:01:37;98538.22;;;10.65;51.34
78117;BME280;67887;59.082;37.928;2023-03-23T09:04:23;98527.34;;;10.71;51.17
78117;BME280;67887;59.082;37.928;2023-03-23T09:07:11;98525.97;;;10.78;50.94
78117;BME280;67887;59.082;37.928;2023-03-23T09:09:40;98518.78;;;10.82;51.16
78117;BME280;67887;59.082;37.928;2023-03-23T09:12:08;98532.78;;;10.81;51.20
78117;BME280;67887;59.082;37.928;2023-03-23T09:14:35;98525.56;;;10.84;50.94
78117;BME280;67887;59.082;37.928;2023-03-23T09:17:02;98526.41;;;10.85;50.99
78117;BME280;67887;59.082;37.928;2023-03-23T09:19:29;98522.03;;;10.86;51.26
78117;BME280;67887;59.082;37.928;2023-03-23T09:21:56;98531.31;;;10.90;51.02
78117;BME280;67887;59.082;37.928;2023-03-23T09:24:22;98526.72;;;10.93;50.71
78117;BME280;67887;59.082;37.928;2023-03-23T09:26:48;98536.25;;;10.94;50.74
78117;BME280;67887;59.082;37.928;2023-03-23T09:29:15;98523.06;;;10.96;50.80
78117;BME280;67887;59.082;37.928;2023-03-23T09:31:41;98525.56;;;10.97;50.76
78117;BME280;67887;59.082;37.928;2023-03-23T09:34:08;98532.44;;;10.98;50.76
78117;BME280;67887;59.082;37.928;2023-03-23T09:36:36;98530.69;;;10.99;50.74
78117;BME280;67887;59.082;37.928;2023-03-23T09:39:07;98535.19;;;10.97;50.75
78117;BME280;67887;59.082;37.928;2023-03-23T09:49:37;98527.13;;;11.00;50.75
78117;BME280;67887;59.082;37.928;2023-03-23T09:52:13;98529.53;;;11.03;50.74
78117;BME280;67887;59.082;37.928;2023-03-23T09:54:46;98540.59;;;11.07;50.81
78117;BME280;67887;59.082;37.928;2023-03-23T09:57:43;98535.16;;;11.10;50.90
78117;BME280;67887;59.082;37.928;2023-03-23T10:00:25;98535.78;;;11.13;50.80
78117;BME280;67887;59.082;37.928;2023-03-23T10:03:19;98536.63;;;11.14;50.84
78117;BME280;67887;59.082;37.928;2023-03-23T10:05:52;98535.56;;;11.16;50.85
78117;BME280;67887;59.082;37.928;2023-03-23T10:08:24;98538.19;;;11.16;50.92
78117;BME280;67887;59.082;37.928;2023-03-23T10:13:49;98520.63;;;11.18;51.11
78117;BME280;67887;59.082;37.928;2023-03-23T10:16:23;98524.69;;;11.22;51.05
78117;BME280;67887;59.082;37.928;2023-03-23T10:19:10;98523.88;;;11.22;51.28
78117;BME280;67887;59.082;37.928;2023-03-23T10:21:40;98507.44;;;11.20;50.97
78117;BME280;67887;59.082;37.928;2023-03-23T10:24:10;98507.66;;;11.17;51.06
78117;BME280;67887;59.082;37.928;2023-03-23T10:29:21;98513.72;;;11.17;51.33
78117;BME280;67887;59.082;37.928;2023-03-23T10:31:53;98513.72;;;11.17;51.44
78117;BME280;67887;59.082;37.928;2023-03-23T10:34:31;98514.47;;;11.19;51.48
78117;BME280;67887;59.082;37.928;2023-03-23T10:37:15;98502.53;;;11.15;51.67
78117;BME280;67887;59.082;37.928;2023-03-23T10:42:11;98504.00;;;11.19;51.63
78117;BME280;67887;59.082;37.928;2023-03-23T10:44:38;98510.28;;;11.17;51.53
78117;BME280;67887;59.082;37.928;2023-03-23T10:47:06;98505.25;;;11.14;51.81
78117;BME280;67887;59.082;37.928;2023-03-23T10:49:38;98499.19;;;11.13;51.70
78117;BME280;67887;59.082;37.928;2023-03-23T10:52:30;98508.69;;;11.14;51.75
78117;BME280;67887;59.082;37.928;2023-03-23T10:55:05;98521.03;;;11.12;51.85
78117;BME280;67887;59.082;37.928;2023-03-23T10:57:34;98510.47;;;11.14;51.74
78117;BME280;67887;59.082;37.928;2023-03-23T11:00:07;98521.03;;;11.12;51.84
78117;BME280;67887;59.082;37.928;2023-03-23T11:02:40;98515.81;;;11.12;51.79
78117;BME280;67887;59.082;37.928;2023-03-23T11:05:20;98507.88;;;11.14;51.73
78117;BME280;67887;59.082;37.928;2023-03-23T11:07:53;98514.66;;;11.16;51.67
78117;BME280;67887;59.082;37.928;2023-03-23T11:10:25;98509.31;;;11.18;51.52
78117;BME280;67887;59.082;37.928;2023-03-23T11:12:52;98500.44;;;11.20;51.61
78117;BME280;67887;59.082;37.928;2023-03-23T11:15:38;98490.94;;;11.19;51.66
78117;BME280;67887;59.082;37.928;2023-03-23T11:18:10;98492.50;;;11.22;51.65
78117;BME280;67887;59.082;37.928;2023-03-23T11:20:38;98495.84;;;11.24;51.59
78117;BME280;67887;59.082;37.928;2023-03-23T11:23:10;98476.56;;;11.25;51.61
78117;BME280;67887;59.082;37.928;2023-03-23T11:28:20;98476.38;;;11.28;51.41
78117;BME280;67887;59.082;37.928;2023-03-23T11:30:46;98467.66;;;11.28;51.71
78117;BME280;67887;59.082;37.928;2023-03-23T11:33:14;98472.69;;;11.31;51.64
78117;BME280;67887;59.082;37.928;2023-03-23T11:35:44;98470.09;;;11.31;51.23
78117;BME280;67887;59.082;37.928;2023-03-23T11:38:18;98476.97;;;11.32;51.42
78117;BME280;67887;59.082;37.928;2023-03-23T11:40:51;98489.94;;;11.33;51.73
78117;BME280;67887;59.082;37.928;2023-03-23T11:43:21;98485.44;;;11.35;51.59
78117;BME280;67887;59.082;37.928;2023-03-23T11:51:24;98484.72;;;11.33;51.69
78117;BME280;67887;59.082;37.928;2023-03-23T11:56:41;98481.78;;;11.38;51.82
78117;BME280;67887;59.082;37.928;2023-03-23T11:59:25;98479.97;;;11.38;52.58
78117;BME280;67887;59.082;37.928;2023-03-23T12:02:04;98476.44;;;11.39;51.76
78117;BME280;67887;59.082;37.928;2023-03-23T12:10:53;98473.59;;;11.42;51.83
78117;BME280;67887;59.082;37.928;2023-03-23T12:16:28;98474.22;;;11.46;51.89
78117;BME280;67887;59.082;37.928;2023-03-23T12:21:45;98478.59;;;11.45;51.84
78117;BME280;67887;59.082;37.928;2023-03-23T12:29:55;98468.44;;;11.54;51.82
78117;BME280;67887;59.082;37.928;2023-03-23T12:43:33;98454.47;;;11.42;52.38
78117;BME280;67887;59.082;37.928;2023-03-23T12:48:33;98449.22;;;11.42;52.42
78117;BME280;67887;59.082;37.928;2023-03-23T12:58:44;98454.66;;;11.39;52.57
78117;BME280;67887;59.082;37.928;2023-03-23T13:01:37;98457.81;;;11.44;52.85
78117;BME280;67887;59.082;37.928;2023-03-23T13:04:13;98463.13;;;11.42;52.55
78117;BME280;67887;59.082;37.928;2023-03-23T13:06:43;98453.59;;;11.41;52.59
78117;BME280;67887;59.082;37.928;2023-03-23T13:11:53;98452.56;;;11.44;52.61
78117;BME280;67887;59.082;37.928;2023-03-23T13:14:29;98457.81;;;11.44;52.71
78117;BME280;67887;59.082;37.928;2023-03-23T13:17:28;98449.72;;;11.47;52.83
78117;BME280;67887;59.082;37.928;2023-03-23T13:25:22;98456.84;;;11.45;52.56
78117;BME280;67887;59.082;37.928;2023-03-23T13:28:02;98455.19;;;11.44;52.73
78117;BME280;67887;59.082;37.928;2023-03-23T13:30:29;98471.72;;;11.44;52.85
78117;BME280;67887;59.082;37.928;2023-03-23T13:33:12;98463.88;;;11.44;52.90
78117;BME280;67887;59.082;37.928;2023-03-23T13:35:41;98455.19;;;11.44;52.59
78117;BME280;67887;59.082;37.928;2023-03-23T13:40:44;98458.72;;;11.43;52.75
78117;BME280;67887;59.082;37.928;2023-03-23T13:43:11;98462.19;;;11.43;52.64
78117;BME280;67887;59.082;37.928;2023-03-23T13:45:47;98461.44;;;11.41;53.38
78117;BME280;67887;59.082;37.928;2023-03-23T13:53:43;98473.94;;;11.38;53.13
78117;BME280;67887;59.082;37.928;2023-03-23T13:56:21;98467.00;;;11.37;53.61
78117;BME280;67887;59.082;37.928;2023-03-23T14:01:55;98476.72;;;11.48;53.24
78117;BME280;67887;59.082;37.928;2023-03-23T14:04:30;98477.28;;;11.40;53.63
78117;BME280;67887;59.082;37.928;2023-03-23T14:07:09;98463.56;;;11.36;53.89
78117;BME280;67887;59.082;37.928;2023-03-23T14:09:41;98479.59;;;11.32;54.07
78117;BME280;67887;59.082;37.928;2023-03-23T14:14:45;98484.41;;;11.25;54.36
78117;BME280;67887;59.082;37.928;2023-03-23T14:19:50;98464.88;;;11.18;54.83
78117;BME280;67887;59.082;37.928;2023-03-23T14:22:27;98463.22;;;11.17;54.99
78117;BME280;67887;59.082;37.928;2023-03-23T14:27:39;98463.31;;;11.15;55.13
78117;BME280;67887;59.082;37.928;2023-03-23T14:30:08;98469.69;;;11.24;55.26
78117;BME280;67887;59.082;37.928;2023-03-23T14:32:38;98461.44;;;11.17;55.47
78117;BME280;67887;59.082;37.928;2023-03-23T14:35:08;98458.44;;;11.11;55.64
78117;BME280;67887;59.082;37.928;2023-03-23T14:37:38;98459.47;;;11.08;55.83
78117;BME280;67887;59.082;37.928;2023-03-23T14:40:04;98461.13;;;11.09;55.88
78117;BME280;67887;59.082;37.928;2023-03-23T14:42:34;98462.09;;;11.08;56.13
78117;BME280;67887;59.082;37.928;2023-03-23T14:45:04;98459.59;;;11.07;56.21
78117;BME280;67887;59.082;37.928;2023-03-23T14:47:35;98477.16;;;11.04;56.30
78117;BME280;67887;59.082;37.928;2023-03-23T14:50:05;98475.59;;;11.02;56.75
78117;BME280;67887;59.082;37.928;2023-03-23T14:52:36;98467.03;;;11.00;56.92
78117;BME280;67887;59.082;37.928;2023-03-23T14:55:16;98463.91;;;10.95;57.20
78117;BME280;67887;59.082;37.928;2023-03-23T14:57:43;98471.75;;;10.95;57.01
78117;BME280;67887;59.082;37.928;2023-03-23T15:00:19;98464.22;;;10.90;57.39
78117;BME280;67887;59.082;37.928;2023-03-23T15:02:49;98457.22;;;10.91;57.13
78117;BME280;67887;59.082;37.928;2023-03-23T15:05:22;98459.19;;;10.87;57.49
78117;BME280;67887;59.082;37.928;2023-03-23T15:07:54;98463.50;;;10.88;57.70
78117;BME280;67887;59.082;37.928;2023-03-23T15:10:23;98461.06;;;10.85;57.70
78117;BME280;67887;59.082;37.928;2023-03-23T15:12:50;98464.75;;;10.82;57.87
78117;BME280;67887;59.082;37.928;2023-03-23T15:17:52;98463.41;;;10.77;58.13
78117;BME280;67887;59.082;37.928;2023-03-23T15:20:26;98464.31;;;10.76;58.52
78117;BME280;67887;59.082;37.928;2023-03-23T15:22:54;98457.34;;;10.76;58.42
78117;BME280;67887;59.082;37.928;2023-03-23T15:28:17;98453.16;;;10.74;59.03
78117;BME280;67887;59.082;37.928;2023-03-23T15:30:51;98460.28;;;10.72;58.99